Time;durP1;ratioP1;P1;durP2;ratioP2;P2;SDS_P1;SDS_P2;PMS_P1;PMS_P2;Temp;Humidity;BMP_temperature;BMP_pressure;BME280_temperature;BME280_humidity;BME280_pressure;Samples;Min_cycle;Max_cycle;Signal;HPM_P1;HPM_P2
2023/12/26 00:02:03;;;;;;;;;3.00;3.00;;;;;21.22;50.92;99716.44;111468;1267;18657;-30
2023/12/26 00:04:30;;;;;;;;;1.00;1.00;;;;;21.23;50.84;99712.63;111456;1260;21069;-30
2023/12/26 00:06:57;;;;;;;;;3.00;1.00;;;;;21.21;51.19;99713.35;111501;1253;19585;-30
2023/12/26 00:09:25;;;;;;;;;1.00;1.00;;;;;21.20;50.88;99708.99;111476;1260;18591;-30
2023/12/26 00:11:52;;;;;;;;;1.00;1.00;;;;;21.21;50.84;99705.88;111620;1252;20801;-30
2023/12/26 00:14:20;;;;;;;;;1.00;1.00;;;;;21.21;50.97;99708.88;111580;1267;18875;-30
2023/12/26 00:16:48;;;;;;;;;1.00;1.00;;;;;21.21;50.77;99705.67;111496;1267;18619;-29
2023/12/26 00:19:15;;;;;;;;;3.00;3.00;;;;;21.22;50.76;99712.21;111516;1259;21970;-30
2023/12/26 00:21:42;;;;;;;;;1.00;1.00;;;;;21.21;50.87;99713.40;111546;1267;18134;-29
2023/12/26 00:24:10;;;;;;;;;1.00;1.00;;;;;21.22;50.80;99717.48;111561;1252;21150;-30
2023/12/26 00:26:37;;;;;;;;;1.00;1.00;;;;;21.21;50.86;99714.54;111595;1267;19391;-30
2023/12/26 00:29:05;;;;;;;;;1.00;1.00;;;;;21.20;50.80;99708.89;111612;1252;19604;-30
2023/12/26 00:31:32;;;;;;;;;1.00;1.00;;;;;21.21;50.73;99703.16;111591;1252;20347;-29
2023/12/26 00:34:00;;;;;;;;;1.00;1.00;;;;;21.21;50.67;99699.30;111569;1252;21989;-30
2023/12/26 00:36:27;;;;;;;;;1.00;1.00;;;;;21.20;50.52;99697.07;111634;1254;19610;-30
2023/12/26 00:38:54;;;;;;;;;1.00;1.00;;;;;21.20;50.68;99694.63;111604;1252;21455;-30
2023/12/26 00:41:21;;;;;;;;;3.50;1.00;;;;;21.19;50.60;99690.33;111431;1260;20669;-29
2023/12/26 00:43:50;;;;;;;;;1.00;1.00;;;;;21.21;50.77;99691.51;111452;1267;19478;-30
2023/12/26 00:46:17;;;;;;;;;1.00;1.00;;;;;21.19;50.47;99687.77;111543;1267;20007;-30
2023/12/26 00:48:44;;;;;;;;;1.00;1.00;;;;;21.19;50.67;99685.87;111551;1252;19397;-30
2023/12/26 00:51:12;;;;;;;;;1.00;1.00;;;;;21.19;50.89;99683.25;111461;1268;19503;-30
2023/12/26 00:53:39;;;;;;;;;1.00;1.00;;;;;21.20;50.44;99681.27;111440;1253;20088;-31
2023/12/26 00:56:07;;;;;;;;;1.00;1.00;;;;;21.20;50.60;99676.76;111508;1267;20394;-31
2023/12/26 00:58:35;;;;;;;;;1.00;1.00;;;;;21.18;50.66;99679.61;111599;1252;19621;-31
2023/12/26 01:01:02;;;;;;;;;1.00;1.00;;;;;21.18;50.57;99681.30;111496;1252;20039;-31
2023/12/26 01:03:29;;;;;;;;;1.00;1.00;;;;;21.18;50.51;99679.61;111430;1252;22067;-31
2023/12/26 01:05:57;;;;;;;;;1.00;1.00;;;;;21.18;50.64;99679.45;111514;1267;18412;-31
2023/12/26 01:08:24;;;;;;;;;1.00;1.00;;;;;21.18;50.46;99682.56;111451;1259;19865;-31
2023/12/26 01:10:52;;;;;;;;;3.00;2.00;;;;;21.18;50.43;99682.67;110915;1253;904362;-31
2023/12/26 01:13:19;;;;;;;;;1.00;1.00;;;;;21.17;50.23;99675.23;111502;1254;19607;-31
2023/12/26 01:15:46;;;;;;;;;3.00;3.00;;;;;21.17;50.44;99670.53;111607;1264;20133;-31
2023/12/26 01:18:14;;;;;;;;;1.00;1.00;;;;;21.16;50.35;99670.45;111520;1251;20939;-30
2023/12/26 01:20:41;;;;;;;;;1.00;1.00;;;;;21.16;50.38;99670.70;111539;1253;19687;-31
2023/12/26 01:23:08;;;;;;;;;1.00;1.00;;;;;21.17;50.32;99674.46;111454;1260;19857;-31
2023/12/26 01:25:36;;;;;;;;;1.00;1.00;;;;;21.17;50.37;99669.73;111451;1252;19354;-30
2023/12/26 01:28:03;;;;;;;;;1.00;1.00;;;;;21.16;50.33;99668.48;111517;1253;19574;-31
2023/12/26 01:30:30;;;;;;;;;1.00;1.00;;;;;21.16;50.37;99670.84;111471;1253;21207;-31
2023/12/26 01:32:58;;;;;;;;;1.00;1.00;;;;;21.16;50.27;99667.02;111574;1252;20722;-31
2023/12/26 01:35:25;;;;;;;;;1.00;1.00;;;;;21.17;50.30;99662.70;111470;1252;19671;-31
2023/12/26 01:37:52;;;;;;;;;1.00;1.00;;;;;21.15;50.18;99659.73;111626;1252;20003;-31
2023/12/26 01:40:20;;;;;;;;;1.00;1.00;;;;;21.16;50.19;99662.02;111473;1252;21606;-31
2023/12/26 01:42:47;;;;;;;;;1.00;1.00;;;;;21.16;49.92;99660.48;111644;1252;18977;-30
2023/12/26 01:45:15;;;;;;;;;1.00;1.00;;;;;21.17;50.19;99645.60;111436;1252;21365;-30
2023/12/26 01:47:42;;;;;;;;;1.00;1.00;;;;;21.16;50.06;99648.50;111644;1262;20803;-31
2023/12/26 01:50:09;;;;;;;;;1.00;1.00;;;;;21.17;50.28;99646.20;111474;1267;18199;-31
2023/12/26 01:52:38;;;;;;;;;1.00;1.00;;;;;21.17;49.93;99642.17;111720;1252;19987;-31
2023/12/26 01:55:06;;;;;;;;;1.00;1.00;;;;;21.15;50.22;99643.34;111423;1252;20918;-31
2023/12/26 01:57:35;;;;;;;;;1.00;1.00;;;;;21.16;50.06;99641.42;111625;1252;19691;-31
2023/12/26 02:00:03;;;;;;;;;1.00;1.00;;;;;21.16;50.01;99640.72;111665;1252;21221;-29
2023/12/26 02:02:30;;;;;;;;;1.00;1.00;;;;;21.16;50.01;99632.26;111435;1253;20916;-30
2023/12/26 02:04:58;;;;;;;;;1.00;1.00;;;;;21.16;50.24;99627.36;111655;1267;18442;-30
2023/12/26 02:07:25;;;;;;;;;1.00;1.00;;;;;21.15;50.07;99618.29;111513;1253;20055;-30
2023/12/26 02:09:52;;;;;;;;;1.00;1.00;;;;;21.15;50.01;99613.06;111681;1267;20743;-30
2023/12/26 02:12:20;;;;;;;;;1.00;1.00;;;;;21.15;49.70;99607.29;111543;1267;19493;-31
2023/12/26 02:14:47;;;;;;;;;1.00;1.00;;;;;21.16;49.88;99601.72;111746;1253;20004;-30
2023/12/26 02:17:14;;;;;;;;;1.00;1.00;;;;;21.15;49.84;99599.44;111627;1252;20841;-30
2023/12/26 02:19:41;;;;;;;;;1.00;1.00;;;;;21.16;50.08;99597.91;111736;1267;21406;-30
2023/12/26 02:22:09;;;;;;;;;1.00;1.00;;;;;21.16;49.97;99591.54;111777;1252;19930;-30
2023/12/26 02:24:36;;;;;;;;;1.00;1.00;;;;;21.15;49.80;99590.63;111550;1267;19262;-30
2023/12/26 02:27:03;;;;;;;;;1.00;1.00;;;;;21.16;49.71;99590.13;111634;1267;18176;-30
2023/12/26 02:29:31;;;;;;;;;1.00;1.00;;;;;21.14;49.93;99584.05;111451;1253;19947;-31
2023/12/26 02:31:58;;;;;;;;;1.00;1.00;;;;;21.14;49.94;99580.63;111631;1252;20836;-30
2023/12/26 02:34:25;;;;;;;;;1.00;1.00;;;;;21.14;49.82;99575.23;111521;1267;19562;-30
2023/12/26 02:36:53;;;;;;;;;1.00;1.00;;;;;21.13;49.91;99573.73;111676;1267;19946;-30
2023/12/26 02:39:20;;;;;;;;;1.00;1.00;;;;;21.14;49.99;99569.89;111538;1267;19354;-30
2023/12/26 02:41:47;;;;;;;;;1.00;1.00;;;;;21.14;49.64;99559.23;111508;1267;18211;-30
2023/12/26 02:44:15;;;;;;;;;1.00;1.00;;;;;21.14;49.95;99557.05;111619;1252;21274;-30
2023/12/26 02:46:42;;;;;;;;;1.00;1.00;;;;;21.15;49.83;99557.47;111432;1261;20619;-31
2023/12/26 02:49:09;;;;;;;;;1.00;1.00;;;;;21.13;49.99;99553.15;111634;1267;18136;-30
2023/12/26 02:51:36;;;;;;;;;1.00;1.00;;;;;21.12;49.88;99549.17;111494;1252;20189;-30
2023/12/26 02:54:04;;;;;;;;;1.00;1.00;;;;;21.14;49.71;99546.75;111668;1252;20663;-30
2023/12/26 02:56:31;;;;;;;;;1.00;1.00;;;;;21.12;49.91;99545.04;111435;1268;18147;-31
2023/12/26 02:58:58;;;;;;;;;1.00;1.00;;;;;21.13;49.68;99537.30;111590;1253;20110;-31
2023/12/26 03:01:26;;;;;;;;;3.00;3.00;;;;;21.12;49.92;99537.77;111487;1260;20653;-31
2023/12/26 03:03:53;;;;;;;;;1.00;1.00;;;;;21.11;49.75;99530.31;111462;1260;19799;-31
2023/12/26 03:06:20;;;;;;;;;1.00;1.00;;;;;21.12;49.69;99524.52;111503;1252;20056;-30
2023/12/26 03:08:48;;;;;;;;;1.00;1.00;;;;;21.12;49.79;99522.07;111477;1253;20839;-30
2023/12/26 03:11:15;;;;;;;;;1.00;1.00;;;;;21.12;49.59;99517.38;111543;1253;19617;-31
2023/12/26 03:13:42;;;;;;;;;1.00;1.00;;;;;21.11;49.64;99506.77;111479;1251;20058;-30
2023/12/26 03:16:09;;;;;;;;;1.00;1.00;;;;;21.13;49.63;99501.41;111588;1260;20941;-30
2023/12/26 03:18:37;;;;;;;;;1.00;1.00;;;;;21.13;49.46;99493.83;111507;1252;19595;-31
2023/12/26 03:21:04;;;;;;;;;1.00;1.00;;;;;21.13;49.52;99489.25;111411;1253;21213;-30
2023/12/26 03:23:31;;;;;;;;;1.00;1.00;;;;;21.12;49.69;99489.66;111540;1253;20837;-30
2023/12/26 03:25:58;;;;;;;;;1.00;1.00;;;;;21.12;49.60;99484.43;111480;1253;19620;-31
2023/12/26 03:28:26;;;;;;;;;3.50;2.00;;;;;21.13;49.65;99480.17;111465;1252;20084;-30
2023/12/26 03:30:53;;;;;;;;;1.00;1.00;;;;;21.12;49.59;99481.13;111484;1253;20772;-31
2023/12/26 03:33:20;;;;;;;;;3.00;3.00;;;;;21.11;49.54;99477.09;111489;1268;19570;-31
2023/12/26 03:35:48;;;;;;;;;1.00;1.00;;;;;21.11;49.47;99468.71;111449;1268;18647;-31
2023/12/26 03:38:16;;;;;;;;;1.00;1.00;;;;;21.10;49.59;99463.02;111469;1253;19274;-30
2023/12/26 03:40:43;;;;;;;;;1.00;1.00;;;;;21.11;49.28;99459.63;111447;1268;18186;-30
2023/12/26 03:43:11;;;;;;;;;1.00;1.00;;;;;21.10;49.52;99449.52;111462;1260;19887;-30
2023/12/26 03:45:38;;;;;;;;;1.00;1.00;;;;;21.09;49.64;99446.38;111437;1267;20942;-31
2023/12/26 03:48:05;;;;;;;;;1.00;1.00;;;;;21.09;49.53;99445.45;111426;1252;19645;-30
2023/12/26 03:50:33;;;;;;;;;3.00;3.00;;;;;21.09;49.68;99436.31;111515;1252;20027;-31
2023/12/26 03:53:00;;;;;;;;;1.00;1.00;;;;;21.12;49.52;99434.61;111478;1260;20705;-31
2023/12/26 03:55:27;;;;;;;;;1.00;1.00;;;;;21.10;49.20;99429.25;111578;1267;18686;-31
2023/12/26 03:57:55;;;;;;;;;1.00;1.00;;;;;21.10;49.50;99422.34;111546;1267;20007;-31
2023/12/26 04:00:22;;;;;;;;;1.00;1.00;;;;;21.11;49.52;99415.45;111627;1253;20772;-30
2023/12/26 04:02:49;;;;;;;;;1.00;1.00;;;;;21.10;49.38;99408.23;111611;1253;19598;-30
2023/12/26 04:05:16;;;;;;;;;1.00;1.00;;;;;21.10;49.52;99403.40;111605;1267;20210;-31
2023/12/26 04:07:44;;;;;;;;;1.00;1.00;;;;;21.09;49.37;99396.83;111488;1252;19385;-30
2023/12/26 04:10:11;;;;;;;;;2.00;1.00;;;;;21.10;49.51;99386.73;111458;1252;19614;-30
2023/12/26 04:12:38;;;;;;;;;4.00;1.00;;;;;21.12;49.45;99384.39;111459;1267;18852;-30
2023/12/26 04:15:06;;;;;;;;;1.00;1.00;;;;;21.12;49.27;99378.56;111482;1267;19386;-31
2023/12/26 04:17:33;;;;;;;;;1.00;1.00;;;;;21.12;49.21;99374.48;111521;1254;19647;-31
2023/12/26 04:20:00;;;;;;;;;1.00;1.00;;;;;21.14;49.41;99369.92;111485;1253;20006;-31
2023/12/26 04:22:28;;;;;;;;;1.00;1.00;;;;;21.13;49.27;99362.81;111566;1252;19380;-31
2023/12/26 04:24:55;;;;;;;;;1.00;1.00;;;;;21.10;49.19;99368.48;111560;1252;19657;-30
2023/12/26 04:27:23;;;;;;;;;3.00;1.00;;;;;21.11;49.17;99368.95;111610;1267;18631;-30
2023/12/26 04:29:50;;;;;;;;;1.00;1.00;;;;;21.12;49.33;99368.40;111538;1252;20841;-31
2023/12/26 04:32:17;;;;;;;;;3.00;3.00;;;;;21.09;49.58;99364.15;111417;1268;19474;-30
2023/12/26 04:34:44;;;;;;;;;3.00;3.00;;;;;21.10;49.23;99363.67;111478;1252;20071;-31
2023/12/26 04:37:12;;;;;;;;;1.00;1.00;;;;;21.10;49.36;99358.03;111519;1253;20848;-31
2023/12/26 04:39:39;;;;;;;;;1.00;1.00;;;;;21.10;49.40;99360.41;111474;1252;20724;-30
2023/12/26 04:42:06;;;;;;;;;1.00;1.00;;;;;21.12;49.36;99352.04;111568;1267;18597;-30
2023/12/26 04:44:34;;;;;;;;;1.00;1.00;;;;;21.12;49.37;99348.03;111494;1253;20805;-30
2023/12/26 04:47:01;;;;;;;;;1.00;1.00;;;;;21.12;49.46;99342.40;111470;1252;18180;-30
2023/12/26 04:49:28;;;;;;;;;1.00;1.00;;;;;21.10;49.32;99338.63;111502;1252;20131;-31
2023/12/26 04:51:56;;;;;;;;;1.00;1.00;;;;;21.12;49.29;99330.05;111456;1252;21795;-31
2023/12/26 04:54:23;;;;;;;;;1.00;1.00;;;;;21.14;49.05;99323.91;111458;1267;18167;-30
2023/12/26 04:56:50;;;;;;;;;1.00;1.00;;;;;21.11;49.39;99320.66;111493;1252;20030;-31
2023/12/26 04:59:17;;;;;;;;;1.00;1.00;;;;;21.10;49.32;99313.87;111535;1260;22097;-31
2023/12/26 05:01:45;;;;;;;;;1.00;1.00;;;;;21.09;49.14;99309.31;111458;1252;19608;-31
2023/12/26 05:04:12;;;;;;;;;1.00;1.00;;;;;21.08;49.43;99309.11;111626;1252;20043;-30
2023/12/26 05:06:39;;;;;;;;;1.00;1.00;;;;;21.08;49.20;99309.49;111491;1253;19395;-31
2023/12/26 05:09:07;;;;;;;;;1.00;1.00;;;;;21.10;49.34;99304.93;111624;1252;19831;-30
2023/12/26 05:11:34;;;;;;;;;1.00;1.00;;;;;21.11;49.34;99304.11;111503;1267;18608;-31
2023/12/26 05:14:01;;;;;;;;;1.00;1.00;;;;;21.11;49.24;99304.65;111673;1252;20886;-31
2023/12/26 05:16:30;;;;;;;;;1.00;1.00;;;;;21.12;49.14;99299.50;111468;1268;19607;-31
2023/12/26 05:18:57;;;;;;;;;1.00;1.00;;;;;21.10;49.30;99287.41;111610;1253;21121;-31
2023/12/26 05:21:24;;;;;;;;;1.00;1.00;;;;;21.11;49.18;99283.02;111454;1252;20786;-31
2023/12/26 05:23:52;;;;;;;;;1.00;1.00;;;;;21.12;49.09;99279.64;111674;1252;20890;-29
2023/12/26 05:26:19;;;;;;;;;1.00;1.00;;;;;21.11;49.10;99277.10;111480;1267;18758;-30
2023/12/26 05:28:46;;;;;;;;;1.00;1.00;;;;;21.08;49.20;99269.11;111638;1267;20713;-29
2023/12/26 05:31:14;;;;;;;;;1.00;1.00;;;;;21.09;49.17;99264.02;111519;1260;19497;-29
2023/12/26 05:33:41;;;;;;;;;1.00;1.00;;;;;21.12;49.28;99256.48;111441;1252;18965;-29
2023/12/26 05:36:08;;;;;;;;;1.00;1.00;;;;;21.12;49.18;99248.09;111562;1252;20992;-30
2023/12/26 05:38:35;;;;;;;;;1.00;1.00;;;;;21.10;49.26;99243.95;111421;1253;20886;-29
2023/12/26 05:41:03;;;;;;;;;1.00;1.00;;;;;21.10;49.36;99242.98;111632;1267;18735;-30
2023/12/26 05:43:30;;;;;;;;;1.00;1.00;;;;;21.09;49.36;99243.27;111459;1252;20809;-30
2023/12/26 05:45:57;;;;;;;;;2.00;1.00;;;;;21.10;49.37;99237.52;111682;1252;18187;-30
2023/12/26 05:48:25;;;;;;;;;1.00;1.00;;;;;21.12;49.07;99235.15;111535;1260;19964;-30
2023/12/26 05:50:52;;;;;;;;;3.00;1.00;;;;;21.13;49.26;99232.27;111725;1267;19381;-31
2023/12/26 05:53:20;;;;;;;;;1.00;1.00;;;;;21.12;49.02;99227.14;111595;1267;19504;-30
2023/12/26 05:55:47;;;;;;;;;2.00;1.00;;;;;21.09;49.28;99222.02;111714;1253;20409;-30
2023/12/26 05:58:14;;;;;;;;;1.00;1.00;;;;;21.08;49.35;99214.52;111592;1260;20749;-30
2023/12/26 06:00:42;;;;;;;;;1.00;1.00;;;;;21.09;49.24;99210.43;111430;1253;19616;-29
2023/12/26 06:03:09;;;;;;;;;1.00;1.00;;;;;21.10;49.12;99208.23;111641;1258;19972;-29
2023/12/26 06:05:36;;;;;;;;;1.00;1.00;;;;;21.06;49.40;99207.23;111445;1251;22075;-30
2023/12/26 06:08:04;;;;;;;;;1.00;1.00;;;;;21.07;49.74;99208.85;111620;1253;19587;-29
2023/12/26 06:10:31;;;;;;;;;1.00;1.00;;;;;21.10;49.47;99209.05;111440;1253;21218;-30
2023/12/26 06:12:58;;;;;;;;;1.00;1.00;;;;;21.08;49.62;99208.71;111618;1252;20973;-30
2023/12/26 06:15:25;;;;;;;;;1.00;1.00;;;;;21.06;49.43;99213.93;111481;1267;18189;-30
2023/12/26 06:17:53;;;;;;;;;1.00;1.00;;;;;21.08;49.57;99210.90;111660;1253;20089;-29
2023/12/26 06:20:22;;;;;;;;;3.00;1.00;;;;;21.08;49.56;99207.30;111518;1253;22001;-29
2023/12/26 06:22:50;;;;;;;;;3.00;1.00;;;;;21.11;49.32;99203.52;111574;1253;19571;-29
2023/12/26 06:25:17;;;;;;;;;1.00;1.00;;;;;21.09;49.57;99201.30;111444;1252;18893;-29
2023/12/26 06:27:44;;;;;;;;;1.00;1.00;;;;;21.08;49.51;99199.48;111603;1253;22077;-30
2023/12/26 06:30:12;;;;;;;;;1.00;1.00;;;;;21.10;49.50;99198.98;111450;1253;19951;-30
2023/12/26 06:32:39;;;;;;;;;1.00;1.00;;;;;21.09;49.46;99198.77;111589;1268;20985;-30
2023/12/26 06:35:06;;;;;;;;;1.00;1.00;;;;;21.09;49.44;99197.10;111547;1253;20788;-30
2023/12/26 06:37:34;;;;;;;;;1.00;1.00;;;;;21.09;49.31;99197.59;111625;1253;20742;-30
2023/12/26 06:40:01;;;;;;;;;1.00;1.00;;;;;21.08;49.45;99198.64;111454;1252;18732;-29
2023/12/26 06:42:29;;;;;;;;;1.00;1.00;;;;;21.07;49.48;99198.44;111698;1253;21220;-30
2023/12/26 06:44:56;;;;;;;;;1.00;1.00;;;;;21.07;49.71;99199.92;111476;1267;18676;-29
2023/12/26 06:47:23;;;;;;;;;1.00;1.00;;;;;21.07;49.42;99199.14;111475;1252;20023;-30
2023/12/26 06:49:53;;;;;;;;;2.33;1.00;;;;;21.06;49.46;99197.38;111461;1253;19441;-30
2023/12/26 06:52:20;;;;;;;;;3.00;3.00;;;;;21.08;49.72;99202.03;111543;1253;19542;-30
2023/12/26 06:54:48;;;;;;;;;1.00;1.00;;;;;21.07;49.47;99200.36;111517;1252;20103;-29
2023/12/26 06:57:16;;;;;;;;;1.00;1.00;;;;;21.07;49.61;99189.24;111508;1260;22007;-30
2023/12/26 06:59:43;;;;;;;;;1.00;1.00;;;;;21.07;49.53;99191.27;111447;1260;20631;-29
2023/12/26 07:02:11;;;;;;;;;1.00;1.00;;;;;21.06;49.69;99193.95;111468;1267;19042;-30
2023/12/26 07:04:38;;;;;;;;;1.00;1.00;;;;;21.05;49.54;99193.88;111429;1260;20714;-30
2023/12/26 07:07:05;;;;;;;;;3.00;3.00;;;;;21.06;49.47;99193.34;111505;1253;19612;-30
2023/12/26 07:09:33;;;;;;;;;1.00;1.00;;;;;21.09;49.40;99194.86;111495;1253;21260;-30
2023/12/26 07:12:00;;;;;;;;;1.00;1.00;;;;;21.08;49.53;99195.66;111562;1267;22477;-30
2023/12/26 07:14:27;;;;;;;;;1.00;1.00;;;;;21.06;49.33;99203.33;111576;1267;18229;-30
2023/12/26 07:16:54;;;;;;;;;1.00;1.00;;;;;21.06;49.56;99206.09;111428;1253;20073;-30
2023/12/26 07:19:22;;;;;;;;;1.00;1.00;;;;;21.06;49.62;99205.00;111617;1267;20619;-30
2023/12/26 07:21:49;;;;;;;;;3.00;3.00;;;;;21.07;49.53;99196.70;111349;1267;20543;-29
2023/12/26 07:24:16;;;;;;;;;1.00;1.00;;;;;21.08;49.56;99195.92;111573;1260;19988;-30
2023/12/26 07:26:44;;;;;;;;;1.00;1.00;;;;;21.06;49.43;99199.02;111453;1252;20979;-30
2023/12/26 07:29:11;;;;;;;;;1.00;1.00;;;;;21.08;49.32;99200.11;111466;1260;20679;-30
2023/12/26 07:31:39;;;;;;;;;1.00;1.00;;;;;21.11;49.55;99207.21;111458;1260;19943;-30
2023/12/26 07:34:08;;;;;;;;;1.00;1.00;;;;;21.18;49.62;99205.76;111655;1260;20734;-30
2023/12/26 07:36:35;;;;;;;;;1.00;1.00;;;;;21.19;49.50;99203.27;111486;1267;18190;-30
2023/12/26 07:39:02;;;;;;;;;2.00;1.00;;;;;21.17;49.85;99198.13;111537;1267;18622;-31
2023/12/26 07:41:30;;;;;;;;;1.00;1.00;;;;;21.21;49.84;99193.16;111551;1253;20822;-30
2023/12/26 07:43:57;;;;;;;;;3.50;3.00;;;;;21.24;50.04;99188.39;111569;1260;19488;-30
2023/12/26 07:46:25;;;;;;;;;1.00;1.00;;;;;21.30;50.15;99193.66;111451;1252;18546;-30
2023/12/26 07:48:52;;;;;;;;;3.00;3.00;;;;;21.30;50.63;99199.65;111628;1263;22718;-30
2023/12/26 07:51:19;;;;;;;;;1.00;1.00;;;;;21.29;51.11;99200.42;111429;1260;20844;-30
2023/12/26 07:53:47;;;;;;;;;1.00;1.00;;;;;21.31;51.25;99203.72;111671;1253;20197;-30
2023/12/26 07:56:14;;;;;;;;;3.00;3.00;;;;;21.26;51.89;99205.46;111483;1252;19565;-30
2023/12/26 07:58:41;;;;;;;;;1.00;1.00;;;;;21.30;52.17;99204.05;111543;1260;18201;-30
2023/12/26 08:01:08;;;;;;;;;1.00;1.00;;;;;21.31;51.79;99202.16;111472;1267;19939;-30
2023/12/26 08:03:36;;;;;;;;;1.00;1.00;;;;;21.33;52.23;99208.73;111503;1253;20910;-30
2023/12/26 08:06:03;;;;;;;;;1.00;1.00;;;;;21.27;51.69;99222.05;111583;1252;18130;-30
2023/12/26 08:08:30;;;;;;;;;1.00;1.00;;;;;21.27;52.22;99218.30;111435;1252;19392;-30
2023/12/26 08:10:58;;;;;;;;;1.00;1.00;;;;;21.29;52.48;99227.65;111629;1253;21982;-30
2023/12/26 08:13:25;;;;;;;;;3.00;3.00;;;;;21.36;52.31;99236.92;111574;1267;19534;-30
2023/12/26 08:15:52;;;;;;;;;1.00;1.00;;;;;21.36;52.18;99232.79;111773;1267;18692;-30
2023/12/26 08:18:20;;;;;;;;;1.00;1.00;;;;;21.38;52.12;99241.94;111477;1253;21933;-30
2023/12/26 08:20:48;;;;;;;;;2.00;1.00;;;;;21.38;51.56;99251.09;111704;1252;18590;-30
2023/12/26 08:23:15;;;;;;;;;3.00;3.00;;;;;21.36;51.33;99254.30;111503;1252;20052;-30
2023/12/26 08:25:42;;;;;;;;;1.00;1.00;;;;;21.38;51.41;99255.39;111685;1252;19425;-30
2023/12/26 08:28:10;;;;;;;;;1.00;1.00;;;;;21.35;50.98;99262.00;111505;1253;19604;-30
2023/12/26 08:30:37;;;;;;;;;3.00;3.00;;;;;21.37;50.73;99268.59;111661;1252;18880;-30
2023/12/26 08:33:04;;;;;;;;;1.00;1.00;;;;;21.37;50.31;99264.52;111502;1252;20550;-30
2023/12/26 08:35:32;;;;;;;;;1.00;1.00;;;;;21.37;50.54;99254.97;111443;1253;18606;-30
2023/12/26 08:37:59;;;;;;;;;1.00;1.00;;;;;21.37;50.68;99250.67;111545;1267;18612;-30
2023/12/26 08:40:26;;;;;;;;;3.00;1.00;;;;;21.35;50.60;99235.53;111486;1253;21293;-30
2023/12/26 08:42:54;;;;;;;;;3.00;3.00;;;;;21.36;50.42;99234.75;111552;1260;18831;-30
2023/12/26 08:45:21;;;;;;;;;1.00;1.00;;;;;21.28;50.40;99233.25;111444;1253;20119;-30
2023/12/26 08:47:49;;;;;;;;;1.00;1.00;;;;;21.31;50.50;99236.83;111575;1267;20681;-30
2023/12/26 08:50:16;;;;;;;;;1.00;1.00;;;;;21.26;50.78;99241.41;111530;1252;18663;-30
2023/12/26 08:52:44;;;;;;;;;3.00;3.00;;;;;21.26;50.74;99244.13;111573;1253;20081;-30
2023/12/26 08:55:11;;;;;;;;;3.00;3.00;;;;;21.24;50.74;99247.23;111450;1252;20832;-29
2023/12/26 08:57:40;;;;;;;;;3.00;3.00;;;;;21.25;50.50;99244.83;111583;1267;19318;-30
2023/12/26 09:00:09;;;;;;;;;2.33;1.67;;;;;21.23;50.45;99245.30;111584;1260;19981;-31
2023/12/26 09:02:36;;;;;;;;;1.00;1.00;;;;;21.26;50.74;99249.22;111593;1267;20510;-30
2023/12/26 09:05:04;;;;;;;;;1.00;1.00;;;;;21.32;51.84;99243.81;111542;1267;18880;-30
2023/12/26 09:07:31;;;;;;;;;2.00;2.00;;;;;21.31;51.78;99230.52;111431;1268;20300;-30
2023/12/26 09:09:59;;;;;;;;;1.00;1.00;;;;;21.24;52.30;99236.45;111563;1253;22016;-30
2023/12/26 09:12:26;;;;;;;;;3.00;3.00;;;;;21.27;52.55;99243.68;111515;1252;19042;-30
2023/12/26 09:14:53;;;;;;;;;1.00;1.00;;;;;21.27;52.56;99243.63;111605;1253;20114;-30
2023/12/26 09:17:21;;;;;;;;;1.00;1.00;;;;;21.35;52.47;99241.14;111455;1253;20841;-30
2023/12/26 09:19:48;;;;;;;;;1.00;1.00;;;;;21.37;52.35;99243.21;111652;1252;19663;-30
2023/12/26 09:22:15;;;;;;;;;1.00;1.00;;;;;21.38;52.70;99243.02;111502;1253;20124;-30
2023/12/26 09:24:43;;;;;;;;;1.00;1.00;;;;;21.39;52.67;99247.04;111688;1253;21901;-30
2023/12/26 09:27:10;;;;;;;;;1.00;1.00;;;;;21.35;52.91;99251.05;111506;1260;20697;-30
2023/12/26 09:29:37;;;;;;;;;1.00;1.00;;;;;21.39;52.72;99254.02;111685;1252;20102;-30
2023/12/26 09:32:05;;;;;;;;;1.00;1.00;;;;;21.39;52.45;99267.52;111598;1260;19409;-30
2023/12/26 09:34:32;;;;;;;;;1.00;1.00;;;;;21.41;52.32;99268.90;111641;1267;18509;-30
2023/12/26 09:36:59;;;;;;;;;1.00;1.00;;;;;21.41;52.63;99266.91;111589;1267;18659;-29
2023/12/26 09:39:27;;;;;;;;;1.00;1.00;;;;;21.42;53.17;99274.48;111624;1267;20904;-30
2023/12/26 09:41:55;;;;;;;;;1.00;1.00;;;;;21.40;53.32;99289.13;111651;1260;19617;-34
2023/12/26 09:44:22;;;;;;;;;1.00;1.00;;;;;21.41;53.37;99294.48;111728;1267;18854;-30
2023/12/26 09:46:51;;;;;;;;;1.00;1.00;;;;;21.42;53.58;99294.67;111620;1253;20706;-29
2023/12/26 09:49:18;;;;;;;;;2.33;2.33;;;;;21.40;53.86;99300.46;111632;1267;19244;-31
2023/12/26 09:51:46;;;;;;;;;3.00;1.00;;;;;21.42;54.14;99302.31;111517;1253;18655;-30
2023/12/26 09:54:13;;;;;;;;;3.00;3.00;;;;;21.46;54.16;99305.05;111576;1252;20945;-31
2023/12/26 09:56:41;;;;;;;;;1.00;1.00;;;;;21.42;54.15;99311.80;111531;1267;18210;-31
2023/12/26 09:59:08;;;;;;;;;1.00;1.00;;;;;21.45;54.40;99315.60;111657;1267;18698;-31
2023/12/26 10:01:35;;;;;;;;;1.00;1.00;;;;;21.44;54.47;99305.36;111553;1252;20958;-30
2023/12/26 10:04:03;;;;;;;;;1.00;1.00;;;;;21.47;54.40;99305.20;111716;1267;18157;-30
2023/12/26 10:06:30;;;;;;;;;1.00;1.00;;;;;21.50;54.85;99309.15;111566;1267;18620;-30
2023/12/26 10:08:57;;;;;;;;;1.00;1.00;;;;;21.51;55.30;99316.09;111714;1260;19375;-30
2023/12/26 10:11:26;;;;;;;;;1.00;1.00;;;;;21.51;55.11;99311.73;111605;1260;19483;-30
2023/12/26 10:13:54;;;;;;;;;1.00;1.00;;;;;21.48;54.94;99324.39;111657;1267;18519;-30
2023/12/26 10:16:21;;;;;;;;;1.00;1.00;;;;;21.48;55.08;99327.16;111498;1253;19377;-29
2023/12/26 10:18:50;;;;;;;;;1.00;1.00;;;;;21.46;54.77;99323.04;111645;1267;19633;-30
2023/12/26 10:21:18;;;;;;;;;1.00;1.00;;;;;21.43;55.09;99327.19;111466;1254;20255;-30
2023/12/26 10:23:46;;;;;;;;;1.00;1.00;;;;;21.43;55.07;99330.29;111490;1252;20806;-29
2023/12/26 10:26:13;;;;;;;;;1.00;1.00;;;;;21.43;54.64;99330.95;111605;1267;18554;-30
2023/12/26 10:28:41;;;;;;;;;1.00;1.00;;;;;21.40;54.84;99334.56;111498;1267;18636;-29
2023/12/26 10:31:08;;;;;;;;;1.00;1.00;;;;;21.44;54.69;99338.02;111615;1267;19517;-30
2023/12/26 10:33:36;;;;;;;;;1.00;1.00;;;;;21.45;54.51;99345.11;111502;1260;19489;-30
2023/12/26 10:36:03;;;;;;;;;1.00;1.00;;;;;21.40;54.03;99338.21;111456;1268;21053;-30
2023/12/26 10:38:30;;;;;;;;;1.00;1.00;;;;;21.30;54.30;99346.38;111530;1252;20761;-30
2023/12/26 10:40:58;;;;;;;;;1.00;1.00;;;;;21.35;53.39;99354.16;111447;1268;19525;-30
2023/12/26 10:43:25;;;;;;;;;1.00;1.00;;;;;21.37;53.70;99353.48;111580;1253;18622;-29
2023/12/26 10:45:52;;;;;;;;;1.00;1.00;;;;;21.39;53.80;99353.91;111478;1252;20809;-30
2023/12/26 10:48:20;;;;;;;;;1.00;1.00;;;;;21.40;53.64;99362.89;111603;1267;18199;-30
2023/12/26 10:50:47;;;;;;;;;1.00;1.00;;;;;21.35;53.56;99359.52;111474;1260;19888;-30
2023/12/26 10:53:19;;;;;;;;;1.00;1.00;;;;;21.30;52.83;99354.38;111573;1260;20650;-30
2023/12/26 10:55:47;;;;;;;;;3.00;3.00;;;;;21.34;52.72;99354.73;111604;1267;18497;-30
2023/12/26 10:58:14;;;;;;;;;3.00;3.00;;;;;21.33;52.43;99346.05;111491;1252;20081;-30
2023/12/26 11:00:41;;;;;;;;;1.00;1.00;;;;;21.37;52.40;99351.52;111502;1253;21818;-30
2023/12/26 11:03:09;;;;;;;;;3.00;3.00;;;;;21.38;52.72;99356.02;111481;1253;19632;-29
2023/12/26 11:05:36;;;;;;;;;1.00;1.00;;;;;21.41;52.91;99354.15;111472;1268;18994;-30
2023/12/26 11:08:03;;;;;;;;;3.00;3.00;;;;;21.41;52.94;99354.31;111465;1267;20899;-29
2023/12/26 11:10:30;;;;;;;;;1.00;1.00;;;;;21.41;52.91;99362.92;111521;1252;19522;-30
2023/12/26 11:12:58;;;;;;;;;3.00;3.00;;;;;21.41;52.98;99363.26;111477;1253;20064;-29
2023/12/26 11:15:25;;;;;;;;;1.00;1.00;;;;;21.38;52.85;99363.59;111566;1267;19382;-30
2023/12/26 11:17:52;;;;;;;;;2.33;2.33;;;;;21.34;53.00;99362.05;111544;1267;18224;-30
2023/12/26 11:20:20;;;;;;;;;1.00;1.00;;;;;21.31;53.24;99364.17;111592;1267;18697;-30
2023/12/26 11:22:47;;;;;;;;;3.00;1.00;;;;;21.31;53.35;99373.27;111605;1267;19399;-30
2023/12/26 11:25:14;;;;;;;;;1.00;1.00;;;;;21.31;52.95;99382.48;111438;1267;18174;-30